Time;durP1;ratioP1;P1;durP2;ratioP2;P2;SDS_P1;SDS_P2;PMS_P1;PMS_P2;Temp;Humidity;BMP_temperature;BMP_pressure;BME280_temperature;BME280_humidity;BME280_pressure;Samples;Min_cycle;Max_cycle;Signal;HPM_P1;HPM_P2
2021/05/14 00:01:18;;;;;;;;;19.50;18.75;;;;;30.28;55.04;98530.41;4916573;29;8878;-74
2021/05/14 00:03:48;;;;;;;;;18.50;17.50;;;;;30.28;56.48;98527.69;4916577;29;9580;-74
2021/05/14 00:06:16;;;;;;;;;18.25;18.25;;;;;30.27;56.18;98520.72;4916551;29;8855;-74
2021/05/14 00:08:45;;;;;;;;;16.50;16.50;;;;;30.39;56.08;98537.31;4916525;29;8934;-74
2021/05/14 00:11:14;;;;;;;;;17.00;17.00;;;;;30.41;56.16;98537.69;4916552;29;8870;-74
2021/05/14 00:13:43;;;;;;;;;14.25;14.25;;;;;30.46;55.28;98528.28;4916438;29;8863;-73
2021/05/14 00:16:11;;;;;;;;;18.25;18.25;;;;;30.52;55.30;98538.34;4916474;29;8851;-74
2021/05/14 00:18:40;;;;;;;;;20.00;17.25;;;;;30.54;54.55;98529.78;4916969;29;8885;-74
2021/05/14 00:21:08;;;;;;;;;19.00;18.00;;;;;30.61;54.94;98540.63;4917347;29;8938;-73
2021/05/14 00:23:37;;;;;;;;;14.25;14.25;;;;;30.67;56.24;98546.38;4916573;29;8862;-73
2021/05/14 00:26:06;;;;;;;;;19.25;17.75;;;;;30.70;56.41;98551.03;4915752;29;8858;-73
2021/05/14 00:28:35;;;;;;;;;17.00;17.00;;;;;30.71;56.56;98556.06;4916133;29;8867;-73
2021/05/14 00:31:03;;;;;;;;;16.00;16.00;;;;;30.69;56.07;98554.91;4915979;29;8894;-74
2021/05/14 00:33:32;;;;;;;;;17.00;17.00;;;;;30.77;56.61;98568.06;4916545;29;8863;-74
2021/05/14 00:36:01;;;;;;;;;17.00;17.00;;;;;30.82;55.45;98577.72;4915676;29;8870;-74
2021/05/14 00:38:29;;;;;;;;;18.75;18.75;;;;;30.85;56.30;98566.03;4915969;29;8858;-74
2021/05/14 00:40:58;;;;;;;;;17.50;17.25;;;;;30.91;56.01;98569.84;4915925;29;8850;-74
2021/05/14 00:43:27;;;;;;;;;21.00;21.00;;;;;30.98;55.20;98569.75;4915725;29;8881;-73
2021/05/14 00:45:56;;;;;;;;;16.75;16.75;;;;;31.04;55.24;98581.75;4915923;29;8867;-73
2021/05/14 00:48:25;;;;;;;;;23.00;21.75;;;;;31.11;56.01;98583.63;4930136;29;8858;-74
2021/05/14 00:50:54;;;;;;;;;16.00;16.00;;;;;31.16;55.09;98582.44;4915717;29;8885;-74
2021/05/14 00:53:23;;;;;;;;;18.25;18.25;;;;;31.18;55.34;98586.28;4916159;29;8866;-73
2021/05/14 02:32:50;;;;;;;;;19.75;19.75;;;;;32.72;52.65;98624.50;5081356;23;8878;-76
2021/05/14 02:35:18;;;;;;;;;18.25;18.25;;;;;32.66;52.24;98606.28;4989276;28;8893;-75
2021/05/14 02:37:47;;;;;;;;;19.25;19.25;;;;;32.74;52.88;98611.19;4993712;28;8862;-75
2021/05/14 02:43:01;;;;;;;;;17.25;17.25;;;;;32.63;51.98;98590.72;5831329;23;8862;-75
2021/05/14 02:45:31;;;;;;;;;24.50;24.50;;;;;32.78;51.98;98599.44;4959828;28;8853;-71
2021/05/14 02:47:59;;;;;;;;;17.50;17.50;;;;;32.72;52.00;98594.44;4962087;28;8871;-73
2021/05/14 02:50:28;;;;;;;;;20.25;20.25;;;;;32.83;52.01;98599.75;4962649;28;8848;-75
2021/05/14 02:52:57;;;;;;;;;23.00;23.00;;;;;32.83;51.41;98599.75;4961945;28;8880;-74
2021/05/14 02:55:26;;;;;;;;;18.00;18.00;;;;;32.84;52.00;98592.31;4972935;28;8888;-72
2021/05/14 02:57:54;;;;;;;;;16.75;16.75;;;;;32.94;51.90;98594.84;4972260;28;8857;-71
2021/05/14 03:00:24;;;;;;;;;21.50;21.50;;;;;32.98;51.33;98584.59;4957265;28;8855;-73
2021/05/14 03:02:53;;;;;;;;;18.75;18.75;;;;;33.03;51.47;98584.13;4952253;28;8876;-72
2021/05/14 03:05:22;;;;;;;;;18.25;18.00;;;;;33.13;50.91;98579.63;4967851;28;8991;-73
2021/05/14 03:07:50;;;;;;;;;19.25;19.25;;;;;33.18;51.15;98578.38;4953105;28;8899;-73
2021/05/14 03:10:19;;;;;;;;;19.00;18.25;;;;;33.23;51.21;98577.88;4968392;28;9052;-72
2021/05/14 03:12:48;;;;;;;;;29.00;28.00;;;;;33.30;51.06;98581.25;4967885;28;8850;-73
2021/05/14 03:15:16;;;;;;;;;21.75;21.75;;;;;33.33;51.05;98577.69;4966338;28;8936;-73
2021/05/14 03:17:45;;;;;;;;;16.50;16.50;;;;;33.34;50.30;98573.75;4973305;28;8877;-72
2021/05/14 03:20:14;;;;;;;;;15.00;15.00;;;;;33.39;50.60;98570.50;4971418;28;8861;-73
2021/05/14 03:22:43;;;;;;;;;15.50;15.50;;;;;33.43;50.27;98561.47;4968486;28;8865;-72
2021/05/14 03:25:12;;;;;;;;;16.25;14.25;;;;;33.54;50.48;98568.22;4962705;28;8871;-73
2021/05/14 03:27:42;;;;;;;;;15.75;15.75;;;;;33.54;50.15;98559.25;4964949;28;8856;-73
2021/05/14 03:30:12;;;;;;;;;17.00;17.00;;;;;33.66;49.76;98570.31;4973037;28;8885;-73
2021/05/14 03:32:41;;;;;;;;;14.25;14.25;;;;;33.68;49.37;98567.16;4973340;28;8884;-72
2021/05/14 03:35:10;;;;;;;;;13.25;13.25;;;;;33.77;49.54;98569.28;4973139;28;8865;-72
2021/05/14 03:37:39;;;;;;;;;16.00;15.50;;;;;33.80;49.92;98566.50;4962305;28;8850;-73
2021/05/14 03:42:49;;;;;;;;;11.50;11.50;;;;;33.90;49.59;98559.22;4964438;28;8915;-72
2021/05/14 03:45:18;;;;;;;;;13.00;13.00;;;;;33.98;49.84;98560.56;4962438;28;8857;-72
2021/05/14 03:47:48;;;;;;;;;16.00;16.00;;;;;34.10;49.35;98562.63;4963906;28;8857;-73
2021/05/14 03:50:17;;;;;;;;;16.75;16.75;;;;;34.16;48.72;98555.44;4968538;28;8956;-72
2021/05/14 03:52:46;;;;;;;;;17.25;17.25;;;;;34.26;48.62;98559.88;4972100;28;8947;-73
2021/05/14 03:55:15;;;;;;;;;18.75;16.75;;;;;34.30;49.08;98559.78;4957611;28;8883;-74
2021/05/14 03:57:44;;;;;;;;;16.50;16.50;;;;;34.39;48.22;98561.94;4961276;28;8852;-73
2021/05/14 04:00:13;;;;;;;;;14.00;14.00;;;;;34.45;47.97;98550.03;4959357;28;8881;-73
2021/05/14 04:02:43;;;;;;;;;15.00;13.80;;;;;34.53;48.01;98556.84;4952819;28;8859;-72
2021/05/14 04:05:12;;;;;;;;;13.40;13.40;;;;;34.54;47.46;98535.69;4955803;28;8935;-73
2021/05/14 04:07:41;;;;;;;;;18.00;18.00;;;;;34.67;48.02;98544.75;4953882;28;8888;-73
2021/05/14 04:15:10;;;;;;;;;19.60;18.20;;;;;34.85;48.30;98531.34;4963174;28;8857;-72
2021/05/14 04:17:41;;;;;;;;;14.75;14.75;;;;;34.91;48.80;98524.13;4960178;28;8867;-75
2021/05/14 04:20:10;;;;;;;;;19.00;19.00;;;;;34.93;47.40;98520.94;4962345;28;8882;-72
2021/05/14 04:22:39;;;;;;;;;13.60;13.60;;;;;34.91;47.80;98526.09;4960707;28;8878;-73
2021/05/14 04:25:08;;;;;;;;;17.40;16.80;;;;;34.88;47.20;98516.75;4961803;28;8873;-75
2021/05/14 04:27:37;;;;;;;;;14.00;14.00;;;;;34.87;47.31;98514.47;4962138;28;8889;-73
2021/05/14 04:30:07;;;;;;;;;12.60;12.60;;;;;34.90;47.60;98508.88;4961624;28;8947;-75
2021/05/14 04:32:35;;;;;;;;;13.20;13.20;;;;;34.91;46.09;98493.97;4963750;28;8849;-75
2021/05/14 04:35:05;;;;;;;;;14.80;14.80;;;;;35.04;46.54;98495.97;4961107;28;9760;-73
2021/05/14 04:37:34;;;;;;;;;13.80;13.80;;;;;35.06;46.37;98499.78;4957387;28;8955;-77
2021/05/14 04:40:03;;;;;;;;;12.20;12.00;;;;;35.12;46.20;98489.03;4960991;28;8864;-76
2021/05/14 04:42:32;;;;;;;;;13.20;13.00;;;;;35.23;45.85;98492.22;4962645;28;8891;-73
2021/05/14 04:45:01;;;;;;;;;12.00;12.00;;;;;35.37;45.57;98491.81;4963539;28;8861;-73
2021/05/14 04:47:31;;;;;;;;;10.40;10.40;;;;;35.47;45.60;98493.44;4962403;28;8965;-73
2021/05/14 04:50:00;;;;;;;;;10.20;10.20;;;;;35.63;46.07;98484.31;4960850;28;9007;-74
2021/05/14 04:52:30;;;;;;;;;14.00;10.80;;;;;35.74;45.33;98481.22;4959034;28;8971;-75
2021/05/14 04:54:59;;;;;;;;;7.60;7.60;;;;;35.85;44.92;98473.44;4952523;28;9620;-75
2021/05/14 04:57:27;;;;;;;;;8.00;8.00;;;;;35.86;45.03;98467.50;4952471;28;8872;-73
2021/05/14 04:59:56;;;;;;;;;11.20;10.20;;;;;35.90;45.15;98459.16;4957083;28;9590;-74
2021/05/14 05:02:25;;;;;;;;;11.80;11.80;;;;;35.96;45.12;98462.88;4966688;28;8866;-74
2021/05/14 05:04:58;;;;;;;;;12.60;12.60;;;;;35.95;46.64;98447.59;4954342;28;8869;-75
2021/05/14 05:07:26;;;;;;;;;13.20;13.20;;;;;35.87;45.56;98458.06;4971546;28;8869;-75
2021/05/14 05:09:55;;;;;;;;;11.80;11.80;;;;;35.83;45.91;98451.16;4971364;28;8861;-73
2021/05/14 05:12:24;;;;;;;;;11.60;11.60;;;;;35.77;45.51;98441.91;4972588;28;8877;-74
2021/05/14 05:14:53;;;;;;;;;12.00;12.00;;;;;35.81;44.67;98442.59;4974187;28;8971;-73
2021/05/14 05:17:22;;;;;;;;;13.00;13.00;;;;;35.78;45.27;98429.72;4975583;28;8991;-75
2021/05/14 05:19:52;;;;;;;;;9.00;9.00;;;;;35.83;44.67;98424.47;4975688;28;8865;-74
2021/05/14 05:22:21;;;;;;;;;10.00;8.80;;;;;35.86;44.91;98420.84;4975657;28;8889;-74
2021/05/14 05:24:50;;;;;;;;;11.60;11.60;;;;;35.99;44.12;98425.53;4975452;28;8865;-75
2021/05/14 05:27:20;;;;;;;;;13.60;13.60;;;;;36.06;43.13;98414.28;4975617;28;8861;-73
2021/05/14 05:29:49;;;;;;;;;10.20;10.20;;;;;36.07;42.21;98413.84;4975301;28;8908;-75
2021/05/14 05:32:17;;;;;;;;;3.60;3.60;;;;;36.06;44.77;98412.31;4975475;28;8952;-75
2021/05/14 05:34:47;;;;;;;;;0.00;0.00;;;;;35.80;43.89;98378.72;4975611;28;9003;-75
2021/05/14 05:37:15;;;;;;;;;9.60;9.60;;;;;35.98;44.64;98402.03;4975374;28;8887;-74
2021/05/14 05:39:44;;;;;;;;;10.80;10.80;;;;;36.03;43.78;98395.97;4971927;28;8975;-75
2021/05/14 05:42:13;;;;;;;;;10.80;10.80;;;;;36.05;42.27;98391.56;4965990;28;8888;-74
2021/05/14 05:44:42;;;;;;;;;9.80;9.80;;;;;36.08;43.14;98379.69;4965256;28;8870;-76
2021/05/14 05:47:11;;;;;;;;;11.20;11.20;;;;;36.21;43.51;98374.13;4965189;28;8871;-76
2021/05/14 05:49:40;;;;;;;;;8.60;8.60;;;;;36.35;43.67;98381.09;4961414;28;8844;-74
2021/05/14 05:52:08;;;;;;;;;11.60;11.60;;;;;36.44;44.33;98370.13;4955233;28;8844;-74
2021/05/14 05:54:37;;;;;;;;;11.00;11.00;;;;;36.63;42.61;98369.00;4955853;28;8860;-70
2021/05/14 05:57:06;;;;;;;;;9.20;9.20;;;;;36.75;42.56;98364.66;4956593;28;8856;-72
2021/05/14 05:59:37;;;;;;;;;9.00;9.00;;;;;36.80;43.09;98359.34;4959790;28;8936;-72
2021/05/14 06:02:06;;;;;;;;;11.60;11.60;;;;;36.85;44.27;98350.50;4964346;28;8864;-75
2021/05/14 06:04:36;;;;;;;;;10.00;10.00;;;;;36.89;43.18;98337.38;4965239;28;8861;-74
2021/05/14 06:07:08;;;;;;;;;12.80;12.80;;;;;36.97;43.68;98326.09;4966746;28;8830;-72
2021/05/14 06:09:38;;;;;;;;;10.60;10.60;;;;;37.06;42.12;98328.88;4966321;28;8982;-74
2021/05/14 06:12:07;;;;;;;;;9.20;9.20;;;;;37.14;41.71;98319.09;4965007;28;8847;-73
2021/05/14 06:14:36;;;;;;;;;11.40;11.40;;;;;37.22;41.98;98320.38;4965234;28;8834;-73
2021/05/14 06:17:11;;;;;;;;;9.60;9.60;;;;;37.28;42.50;98315.03;4966378;28;8852;-72
2021/05/14 06:19:46;;;;;;;;;0.60;0.60;;;;;37.37;41.67;98315.81;4965529;28;8873;-73
2021/05/14 06:22:15;;;;;;;;;11.00;11.00;;;;;37.50;41.34;98313.66;4965992;28;9658;-72
2021/05/14 06:24:43;;;;;;;;;7.00;7.00;;;;;37.62;41.63;98320.25;4962367;28;8828;-73
2021/05/14 06:27:12;;;;;;;;;13.40;13.40;;;;;37.70;42.27;98301.47;4964001;28;9672;-73
2021/05/14 06:29:42;;;;;;;;;10.20;10.20;;;;;37.79;41.77;98293.94;4964035;28;8948;-71
2021/05/14 06:32:11;;;;;;;;;12.80;12.80;;;;;37.83;40.21;98282.75;4964953;28;8855;-72
2021/05/14 06:34:41;;;;;;;;;13.00;13.00;;;;;37.97;40.76;98284.09;4964880;28;8876;-73
2021/05/14 06:37:10;;;;;;;;;12.00;12.00;;;;;38.03;41.09;98280.25;4965724;28;8878;-73
2021/05/14 06:39:39;;;;;;;;;11.60;8.20;;;;;38.08;40.39;98265.09;4964102;28;8837;-73
2021/05/14 06:42:08;;;;;;;;;9.60;9.60;;;;;38.11;39.77;98261.41;4965717;28;8862;-74
2021/05/14 06:44:37;;;;;;;;;11.40;11.40;;;;;38.17;40.52;98268.63;4965594;28;8939;-72
2021/05/14 06:47:06;;;;;;;;;9.20;9.20;;;;;38.14;40.37;98261.28;4963131;28;8855;-73
2021/05/14 06:49:35;;;;;;;;;6.00;6.00;;;;;38.03;41.82;98266.50;4964753;28;9684;-73
2021/05/14 06:52:04;;;;;;;;;13.60;13.60;;;;;37.88;39.72;98257.34;4962969;28;8846;-72
2021/05/14 06:54:33;;;;;;;;;10.80;10.80;;;;;37.78;40.64;98262.13;4965105;28;8857;-72
2021/05/14 06:57:02;;;;;;;;;16.00;15.20;;;;;37.58;40.49;98248.06;4965099;28;8902;-73
2021/05/14 06:59:31;;;;;;;;;7.40;7.40;;;;;37.60;40.87;98247.63;4963455;28;8844;-72
2021/05/14 07:01:59;;;;;;;;;8.20;8.20;;;;;37.62;39.98;98242.41;4964326;28;8845;-72
2021/05/14 07:04:29;;;;;;;;;7.20;7.20;;;;;37.76;39.17;98236.28;4960002;28;8864;-73
2021/05/14 07:06:58;;;;;;;;;11.20;11.20;;;;;37.89;39.70;98245.13;4964064;28;8860;-72
2021/05/14 07:09:27;;;;;;;;;9.40;9.40;;;;;37.97;41.09;98240.81;4963180;28;8859;-72
2021/05/14 07:11:57;;;;;;;;;11.00;11.00;;;;;38.05;40.70;98238.50;4964006;28;8886;-73
2021/05/14 07:14:27;;;;;;;;;9.40;9.40;;;;;38.11;40.59;98225.63;4953788;28;8864;-75
2021/05/14 07:16:56;;;;;;;;;8.60;8.60;;;;;38.20;40.41;98225.59;4954212;28;8880;-73
2021/05/14 07:19:27;;;;;;;;;9.00;9.00;;;;;38.32;39.09;98212.84;4954220;28;8963;-74
2021/05/14 07:21:56;;;;;;;;;8.20;8.20;;;;;38.42;38.93;98206.81;4954292;28;8970;-73
2021/05/14 07:24:26;;;;;;;;;10.00;10.00;;;;;38.55;38.84;98208.59;4953696;28;8883;-73
2021/05/14 07:26:55;;;;;;;;;10.80;9.80;;;;;38.61;38.14;98201.25;4954114;28;8882;-73
2021/05/14 07:29:25;;;;;;;;;17.20;15.20;;;;;38.67;39.15;98189.09;4954198;28;8875;-70
2021/05/14 07:31:54;;;;;;;;;16.40;16.40;;;;;38.74;39.39;98183.22;4963402;28;8865;-73
2021/05/14 07:34:26;;;;;;;;;13.60;13.00;;;;;38.80;40.90;98192.38;4963341;28;8875;-74
2021/05/14 07:37:05;;;;;;;;;17.60;17.60;;;;;38.77;38.42;98181.53;4964263;28;8864;-74
2021/05/14 07:39:39;;;;;;;;;9.00;9.00;;;;;38.71;38.36;98175.13;4962397;28;8861;-74
2021/05/14 07:42:09;;;;;;;;;7.00;7.00;;;;;38.75;39.51;98170.22;4960096;28;8878;-74
2021/05/14 07:44:38;;;;;;;;;7.80;7.80;;;;;38.79;39.19;98174.31;4952566;28;8968;-72
2021/05/14 07:47:07;;;;;;;;;8.60;8.60;;;;;38.81;37.61;98169.09;4953589;28;8884;-78
2021/05/14 07:49:35;;;;;;;;;8.60;8.60;;;;;38.87;38.52;98168.44;4953724;28;8983;-74
2021/05/14 07:52:05;;;;;;;;;12.00;10.80;;;;;38.85;38.52;98159.88;4953218;28;8867;-73
2021/05/14 07:54:33;;;;;;;;;9.60;9.60;;;;;38.80;40.49;98156.53;4969888;28;9598;-72
2021/05/14 07:57:03;;;;;;;;;9.20;9.20;;;;;38.84;39.35;98156.34;4962474;28;8878;-73
2021/05/14 07:59:32;;;;;;;;;9.40;8.80;;;;;38.88;38.79;98147.91;4961800;28;8855;-75
2021/05/14 08:02:02;;;;;;;;;8.00;8.00;;;;;38.93;40.32;98136.22;4961536;28;8926;-75
2021/05/14 08:04:31;;;;;;;;;7.40;7.40;;;;;38.96;37.49;98125.00;4963762;28;8860;-76
2021/05/14 08:07:00;;;;;;;;;8.00;8.00;;;;;38.99;37.71;98126.81;4961510;28;8861;-72
2021/05/14 08:09:28;;;;;;;;;3.20;3.20;;;;;39.02;37.49;98130.59;4973576;28;9639;-75
2021/05/14 08:11:57;;;;;;;;;8.40;8.40;;;;;39.04;37.63;98131.66;4961059;28;8857;-76
2021/05/14 08:14:26;;;;;;;;;9.40;8.80;;;;;39.08;37.51;98125.97;4963008;28;8842;-76
2021/05/14 08:16:55;;;;;;;;;8.60;8.60;;;;;39.03;37.05;98113.59;4961826;28;9609;-74
2021/05/14 08:19:25;;;;;;;;;7.40;7.40;;;;;39.10;39.54;98106.94;4962025;28;8962;-76
2021/05/14 08:21:53;;;;;;;;;7.60;7.60;;;;;39.18;37.96;98101.81;4961958;28;8869;-77
2021/05/14 08:24:22;;;;;;;;;6.00;6.00;;;;;39.10;36.61;98080.13;4962926;28;8860;-75
2021/05/14 08:26:51;;;;;;;;;7.40;7.40;;;;;39.22;38.66;98091.34;4965349;28;8881;-78
2021/05/14 08:29:21;;;;;;;;;8.80;8.80;;;;;39.25;37.94;98095.91;4962030;28;8868;-76
2021/05/14 08:31:50;;;;;;;;;7.80;7.80;;;;;39.25;37.64;98090.41;4960700;28;8858;-79
2021/05/14 08:34:18;;;;;;;;;9.80;9.00;;;;;39.28;39.18;98094.97;4961796;28;8864;-76
2021/05/14 08:36:47;;;;;;;;;6.60;6.60;;;;;39.29;38.23;98093.72;4960154;28;8864;-77
2021/05/14 08:39:18;;;;;;;;;7.60;7.60;;;;;39.28;35.90;98081.16;4961630;28;8907;-74
2021/05/14 08:41:48;;;;;;;;;8.80;8.80;;;;;39.30;36.47;98081.44;4963046;28;8869;-76
2021/05/14 08:44:18;;;;;;;;;7.60;7.60;;;;;39.33;35.47;98075.75;4961043;28;9643;-76
2021/05/14 08:46:48;;;;;;;;;6.00;6.00;;;;;39.32;36.88;98079.72;4975090;28;8931;-76
2021/05/14 08:49:18;;;;;;;;;6.40;6.40;;;;;39.39;36.32;98086.88;4961222;28;8944;-76
2021/05/14 08:51:49;;;;;;;;;5.80;5.80;;;;;39.35;37.58;98087.06;4963444;28;8963;-73
2021/05/14 08:54:18;;;;;;;;;4.80;4.80;;;;;39.33;35.15;98091.53;4971240;28;8873;-73
2021/05/14 08:56:47;;;;;;;;;6.20;6.20;;;;;39.34;35.69;98098.56;4971564;28;8916;-74
2021/05/14 08:59:15;;;;;;;;;6.60;6.60;;;;;39.35;35.95;98105.63;4972004;28;8928;-76
2021/05/14 09:01:44;;;;;;;;;7.80;7.80;;;;;39.31;37.64;98094.78;4972975;28;8841;-77
2021/05/14 09:04:16;;;;;;;;;6.80;6.80;;;;;39.29;35.79;98100.00;4972802;28;8861;-74
2021/05/14 09:06:46;;;;;;;;;8.00;8.00;;;;;39.31;36.81;98097.53;4973143;28;8841;-75
2021/05/14 09:09:17;;;;;;;;;7.00;7.00;;;;;39.33;36.97;98116.38;4972957;28;8841;-75
2021/05/14 09:11:48;;;;;;;;;0.40;0.40;;;;;39.33;37.63;98119.13;4972580;28;8865;-75
2021/05/14 09:14:41;;;;;;;;;7.40;7.40;;;;;39.35;36.16;98117.41;4972828;28;8968;-75
2021/05/14 09:17:15;;;;;;;;;5.40;5.40;;;;;39.35;35.26;98106.38;4969817;28;8853;-76
2021/05/14 09:19:46;;;;;;;;;5.20;5.20;;;;;39.33;35.09;98102.56;4969342;28;8885;-76
2021/05/14 09:22:25;;;;;;;;;5.20;5.20;;;;;39.36;34.79;98115.41;4971758;28;8838;-73
2021/05/14 09:25:01;;;;;;;;;5.00;5.00;;;;;39.34;35.21;98118.66;4964376;28;8865;-75
2021/05/14 09:27:33;;;;;;;;;6.40;6.40;;;;;39.33;36.38;98124.66;4961396;28;8834;-76
2021/05/14 09:30:05;;;;;;;;;4.00;4.00;;;;;39.28;35.62;98120.56;4960637;28;8919;-73
2021/05/14 09:32:35;;;;;;;;;5.40;5.40;;;;;39.30;35.26;98129.13;4960581;28;8876;-76
2021/05/14 09:35:06;;;;;;;;;7.20;7.20;;;;;39.27;35.12;98135.59;4960290;28;8935;-78
2021/05/14 09:37:49;;;;;;;;;8.20;8.20;;;;;39.28;35.13;98134.34;4960083;28;8850;-78
2021/05/14 09:40:20;;;;;;;;;7.60;7.60;;;;;39.26;34.92;98138.81;4961109;28;8902;-75
2021/05/14 09:42:57;;;;;;;;;6.20;6.20;;;;;39.24;35.65;98127.50;4958994;28;9741;-71
2021/05/14 09:45:29;;;;;;;;;7.20;7.20;;;;;39.19;34.58;98125.41;4960837;28;8854;-74
2021/05/14 09:48:02;;;;;;;;;5.80;5.80;;;;;39.21;36.01;98137.50;4961285;28;8876;-77
2021/05/14 09:50:34;;;;;;;;;6.00;6.00;;;;;39.18;35.80;98130.16;4977868;23;9643;-73
2021/05/14 09:53:11;;;;;;;;;7.40;7.40;;;;;39.18;35.61;98130.16;4981165;28;8968;-76
2021/05/14 09:55:47;;;;;;;;;6.00;6.00;;;;;39.18;36.57;98130.16;4963643;28;8853;-77
2021/05/14 09:58:26;;;;;;;;;4.40;4.40;;;;;39.15;35.30;98120.06;4979018;28;9006;-76
2021/05/14 10:00:58;;;;;;;;;8.20;8.20;;;;;39.12;37.46;98123.78;4981754;28;8858;-71
2021/05/14 10:03:30;;;;;;;;;7.40;7.40;;;;;39.13;35.04;98125.31;4981799;28;8859;-77
2021/05/14 10:06:03;;;;;;;;;6.40;6.40;;;;;39.10;33.95;98110.47;4983683;28;8891;-72
2021/05/14 10:08:34;;;;;;;;;7.00;7.00;;;;;39.05;34.68;98110.38;4979220;28;8845;-72
2021/05/14 10:11:04;;;;;;;;;5.60;5.60;;;;;38.97;35.78;98109.97;4985144;28;8863;-73
2021/05/14 10:13:33;;;;;;;;;7.40;7.40;;;;;38.91;36.25;98106.34;4982511;28;9695;-74
2021/05/14 10:16:04;;;;;;;;;7.00;7.00;;;;;38.89;35.48;98106.06;4978443;28;8850;-75
2021/05/14 10:18:39;;;;;;;;;6.80;6.80;;;;;38.78;36.58;98083.81;4975806;28;8896;-74
2021/05/14 10:21:10;;;;;;;;;6.60;6.00;;;;;38.81;35.03;98089.13;4982947;28;8853;-75
2021/05/14 10:23:55;;;;;;;;;6.20;6.20;;;;;38.74;35.62;98080.47;4983908;28;8865;-75
2021/05/14 10:26:36;;;;;;;;;6.60;6.60;;;;;38.70;35.96;98083.41;4982656;28;8999;-75
2021/05/14 10:29:13;;;;;;;;;5.80;5.80;;;;;38.60;35.20;98084.72;4981651;28;8853;-74
2021/05/14 10:31:46;;;;;;;;;5.80;5.80;;;;;38.60;36.33;98104.00;4982871;28;8850;-74
2021/05/14 10:34:16;;;;;;;;;5.60;5.60;;;;;38.55;35.33;98118.41;4977729;28;8853;-73
2021/05/14 10:36:47;;;;;;;;;7.00;7.00;;;;;38.48;35.96;98125.03;4975273;28;8936;-74
2021/05/14 10:39:20;;;;;;;;;6.40;6.40;;;;;38.39;36.57;98130.59;4981424;28;9660;-73
2021/05/14 10:41:57;;;;;;;;;7.60;6.60;;;;;38.35;35.24;98146.56;4983676;28;8838;-74
2021/05/14 10:44:40;;;;;;;;;6.60;6.60;;;;;38.29;35.48;98144.91;4983334;28;8970;-75
2021/05/14 10:47:24;;;;;;;;;7.40;7.40;;;;;38.22;35.49;98162.56;4982388;28;8856;-74
2021/05/14 10:50:02;;;;;;;;;8.60;8.60;;;;;38.07;35.44;98170.69;4983341;28;8833;-76
2021/05/14 10:52:33;;;;;;;;;4.80;4.80;;;;;38.03;36.07;98181.13;4984947;28;8909;-77
2021/05/14 10:55:02;;;;;;;;;5.60;5.60;;;;;37.88;36.49;98183.00;4984273;28;8846;-77
2021/05/14 10:57:40;;;;;;;;;6.60;6.60;;;;;37.88;36.76;98191.28;4982780;28;8920;-76
2021/05/14 11:00:29;;;;;;;;;8.80;8.80;;;;;37.77;37.06;98194.53;4982956;28;8849;-75
2021/05/14 11:03:10;;;;;;;;;6.80;6.00;;;;;37.68;36.74;98193.81;4984981;28;8861;-77
2021/05/14 11:05:45;;;;;;;;;6.60;6.60;;;;;37.57;37.32;98193.50;4998575;28;8838;-77
2021/05/14 11:08:33;;;;;;;;;6.80;6.80;;;;;37.49;36.88;98182.81;4981002;28;8866;-77
2021/05/14 11:11:05;;;;;;;;;6.60;6.60;;;;;37.42;36.98;98190.63;4984106;28;8857;-74
2021/05/14 11:13:42;;;;;;;;;7.20;7.20;;;;;37.35;37.76;98188.94;4984913;28;8854;-74
2021/05/14 11:16:34;;;;;;;;;7.40;6.80;;;;;37.26;36.89;98194.47;4979523;28;8846;-73
2021/05/14 11:19:11;;;;;;;;;7.60;7.60;;;;;37.14;37.50;98193.38;4989373;28;8878;-74
2021/05/14 11:21:59;;;;;;;;;7.20;7.20;;;;;37.14;37.31;98204.38;4990327;28;8969;-74
2021/05/14 11:24:43;;;;;;;;;6.00;6.00;;;;;37.11;37.51;98213.53;4986840;28;8842;-75
2021/05/14 11:27:16;;;;;;;;;6.60;6.60;;;;;37.07;37.78;98212.16;4985272;28;8965;-78
2021/05/14 11:29:49;;;;;;;;;7.40;7.40;;;;;36.98;38.09;98206.66;4979494;28;8921;-75
2021/05/14 11:32:17;;;;;;;;;8.00;8.00;;;;;36.95;37.76;98221.31;4984424;28;8872;-77
2021/05/14 11:35:06;;;;;;;;;7.60;7.60;;;;;36.87;38.06;98223.59;4981007;28;8851;-73
2021/05/14 11:37:54;;;;;;;;;8.80;8.80;;;;;36.78;38.22;98229.84;4980983;28;8862;-72
2021/05/14 11:40:24;;;;;;;;;9.00;9.00;;;;;36.73;37.92;98232.41;4982735;28;8861;-72
2021/05/14 11:42:58;;;;;;;;;7.00;7.00;;;;;36.69;38.82;98245.53;4980062;28;8869;-71
2021/05/14 11:45:33;;;;;;;;;9.20;9.20;;;;;36.65;38.25;98253.91;4978413;28;8851;-72
2021/05/14 11:48:11;;;;;;;;;9.00;9.00;;;;;36.55;38.32;98249.59;4993572;28;8871;-73
2021/05/14 11:50:47;;;;;;;;;7.40;7.40;;;;;36.52;38.79;98254.03;4979968;28;9701;-72
2021/05/14 11:53:21;;;;;;;;;6.40;6.40;;;;;36.29;38.78;98226.34;4992540;28;8889;-71
2021/05/14 11:55:52;;;;;;;;;10.00;10.00;;;;;36.42;39.08;98251.69;4987932;28;8866;-71
2021/05/14 11:58:25;;;;;;;;;8.60;8.60;;;;;36.37;38.97;98250.34;4981090;28;8873;-71
2021/05/14 12:00:57;;;;;;;;;8.80;8.80;;;;;36.31;39.04;98259.63;4981413;28;8877;-72
2021/05/14 12:03:30;;;;;;;;;8.60;8.60;;;;;36.30;39.61;98266.31;4984772;28;8845;-71
2021/05/14 12:06:05;;;;;;;;;11.60;11.60;;;;;36.26;39.58;98269.19;4981040;28;8870;-71
2021/05/14 12:08:34;;;;;;;;;11.60;11.60;;;;;36.20;39.79;98262.75;4982471;28;8843;-72
2021/05/14 12:11:10;;;;;;;;;9.20;9.20;;;;;36.11;39.73;98254.47;4978592;28;8964;-72
2021/05/14 12:13:41;;;;;;;;;9.20;9.20;;;;;36.12;38.90;98266.97;4978378;28;8890;-72
2021/05/14 12:16:12;;;;;;;;;14.80;14.80;;;;;36.04;40.77;98260.97;4986497;28;8847;-73
2021/05/14 12:18:47;;;;;;;;;14.00;14.00;;;;;35.98;40.81;98273.00;4985920;28;8855;-74
2021/05/14 12:21:24;;;;;;;;;11.60;11.60;;;;;35.83;40.78;98270.78;5007311;28;8885;-70
2021/05/14 12:23:55;;;;;;;;;13.60;13.60;;;;;35.73;40.94;98271.91;4983645;28;8860;-73
2021/05/14 12:26:28;;;;;;;;;15.40;15.40;;;;;35.61;41.01;98281.72;4981827;28;8885;-72
2021/05/14 12:28:57;;;;;;;;;17.40;17.40;;;;;35.52;41.63;98289.13;4988253;28;8976;-72
2021/05/14 12:31:30;;;;;;;;;18.80;18.80;;;;;35.45;41.71;98290.13;4970470;28;8940;-71
2021/05/14 12:34:10;;;;;;;;;22.60;22.60;;;;;35.36;41.50;98295.53;4971545;28;8880;-71
2021/05/14 12:36:43;;;;;;;;;22.60;20.80;;;;;35.26;41.90;98302.13;4971818;28;8857;-71
2021/05/14 12:39:13;;;;;;;;;18.60;18.60;;;;;35.13;42.05;98313.13;4973212;28;8853;-71
2021/05/14 12:41:59;;;;;;;;;23.00;20.00;;;;;34.95;42.40;98323.94;4973009;28;8861;-71
2021/05/14 12:44:37;;;;;;;;;17.60;17.60;;;;;34.76;43.38;98327.63;4973323;28;8915;-71
2021/05/14 12:47:27;;;;;;;;;20.00;19.80;;;;;34.61;43.31;98330.06;4973377;28;8849;-72
2021/05/14 12:50:03;;;;;;;;;24.75;24.75;;;;;34.59;43.78;98344.19;4973268;28;8861;-72
2021/05/14 12:52:38;;;;;;;;;24.75;23.50;;;;;34.51;44.35;98353.06;4972221;28;8830;-71
2021/05/14 12:55:18;;;;;;;;;23.75;23.75;;;;;34.57;43.80;98365.00;4973458;28;8853;-71
2021/05/14 12:58:02;;;;;;;;;23.00;23.00;;;;;34.59;43.85;98371.56;4973341;28;8964;-71
2021/05/14 13:00:36;;;;;;;;;25.50;23.75;;;;;34.60;43.35;98370.38;4973550;28;8849;-71
2021/05/14 13:03:10;;;;;;;;;21.25;21.00;;;;;34.61;42.86;98371.13;4973815;28;8959;-71
2021/05/14 13:05:47;;;;;;;;;31.25;27.50;;;;;34.59;43.37;98377.06;4973133;28;8849;-71
2021/05/14 13:08:36;;;;;;;;;21.00;21.00;;;;;34.54;42.79;98383.06;4973074;28;8877;-72
2021/05/14 13:11:11;;;;;;;;;22.50;22.50;;;;;34.48;43.59;98386.78;4973241;28;8869;-71
2021/05/14 13:13:40;;;;;;;;;20.25;20.25;;;;;34.49;43.46;98404.75;4971964;28;8947;-71
2021/05/14 13:16:09;;;;;;;;;22.50;21.00;;;;;34.48;43.56;98405.97;4973154;28;8896;-72
2021/05/14 13:18:38;;;;;;;;;22.25;22.25;;;;;34.36;43.72;98393.78;4973060;28;9645;-71
2021/05/14 13:21:09;;;;;;;;;19.40;19.40;;;;;34.34;43.88;98407.13;4973104;28;8853;-71
2021/05/14 13:23:40;;;;;;;;;21.00;21.00;;;;;34.30;43.24;98407.22;4973068;28;8889;-71
2021/05/14 13:26:09;;;;;;;;;20.25;18.75;;;;;34.27;43.64;98399.84;4972993;28;8857;-72
2021/05/14 13:28:38;;;;;;;;;21.50;21.50;;;;;34.21;43.79;98404.34;4973000;28;8936;-71
2021/05/14 13:31:08;;;;;;;;;17.60;17.60;;;;;34.16;43.69;98415.03;4971840;28;8931;-71
2021/05/14 13:33:37;;;;;;;;;19.75;18.75;;;;;34.13;43.73;98418.66;4974436;28;8977;-71
2021/05/14 13:36:07;;;;;;;;;20.00;20.00;;;;;34.12;44.38;98422.59;4976808;28;8927;-72
2021/05/14 13:38:35;;;;;;;;;17.80;17.80;;;;;33.96;43.44;98409.72;4975628;28;8935;-72